createdAt,value
2019-04-06T00:02:25.226Z,92.33
2019-04-06T00:04:53.718Z,77.13
2019-04-06T00:07:22.278Z,81.87
2019-04-06T00:09:50.824Z,92.23
2019-04-06T00:12:19.386Z,103.97
2019-04-06T00:14:47.923Z,108.50
2019-04-06T00:17:16.678Z,110.90
2019-04-06T00:19:45.126Z,100.80
2019-04-06T00:22:13.614Z,104.97
2019-04-06T00:24:42.159Z,98.57
2019-04-06T00:27:10.592Z,108.43
2019-04-06T00:29:39.094Z,96.47
2019-04-06T00:32:15.146Z,99.10
2019-04-06T00:34:43.644Z,104.70
2019-04-06T00:37:12.067Z,98.13
2019-04-06T00:39:40.606Z,94.27
2019-04-06T00:42:09.094Z,95.50
2019-04-06T00:44:37.504Z,88.13
2019-04-06T00:47:06.050Z,87.57
2019-04-06T00:49:34.466Z,91.43
2019-04-06T00:52:02.959Z,97.57
2019-04-06T00:54:31.445Z,98.73
2019-04-06T00:56:59.923Z,87.17
2019-04-06T00:59:28.457Z,81.33
2019-04-06T01:01:57.022Z,89.93
2019-04-06T01:04:25.511Z,89.90
2019-04-06T01:06:54.946Z,81.10
2019-04-06T01:09:23.559Z,72.70
2019-04-06T01:11:52.054Z,92.20
2019-04-06T01:14:20.546Z,104.07
2019-04-06T01:16:49.028Z,108.37
2019-04-06T01:19:17.522Z,106.17
2019-04-06T01:21:46.034Z,105.80
2019-04-06T01:24:14.510Z,101.80
2019-04-06T01:26:43.017Z,100.77
2019-04-06T01:29:11.501Z,94.47
2019-04-06T01:31:40.046Z,106.20
2019-04-06T01:34:08.639Z,107.87
2019-04-06T01:36:37.024Z,107.83
2019-04-06T01:39:06.168Z,105.87
2019-04-06T01:41:34.621Z,105.20
2019-04-06T01:44:03.186Z,107.80
2019-04-06T01:46:31.663Z,105.77
2019-04-06T01:49:00.088Z,107.30
2019-04-06T01:51:28.512Z,106.47
2019-04-06T01:53:57.066Z,107.47
2019-04-06T01:56:25.557Z,105.10
2019-04-06T01:58:54.115Z,106.67
2019-04-06T02:01:30.217Z,105.03
2019-04-06T02:03:58.711Z,106.93
2019-04-06T02:06:27.208Z,100.47
2019-04-06T02:08:55.768Z,102.07
2019-04-06T02:11:24.248Z,100.47
2019-04-06T02:13:52.674Z,101.17
2019-04-06T02:16:21.230Z,101.13
2019-04-06T02:18:49.712Z,100.47
2019-04-06T02:21:18.202Z,101.87
2019-04-06T02:23:46.820Z,100.43
2019-04-06T02:26:15.236Z,99.53
2019-04-06T02:28:43.653Z,99.87
2019-04-06T02:31:16.643Z,101.93
2019-04-06T02:34:01.450Z,101.07
2019-04-06T02:36:34.189Z,103.00
2019-04-06T02:39:04.260Z,100.87
2019-04-06T02:41:37.106Z,102.47
2019-04-06T02:44:05.638Z,98.67
2019-04-06T02:46:34.295Z,104.37
2019-04-06T02:49:02.804Z,104.03
2019-04-06T02:51:31.355Z,103.73
2019-04-06T02:53:59.851Z,104.10
2019-04-06T02:56:28.421Z,101.50
2019-04-06T02:58:56.949Z,83.13
2019-04-06T03:01:25.436Z,89.63
2019-04-06T03:03:53.855Z,83.73
2019-04-06T03:06:22.438Z,86.10
2019-04-06T03:08:52.007Z,72.50
2019-04-06T03:11:20.439Z,89.97
2019-04-06T03:13:48.994Z,100.57
2019-04-06T03:16:17.469Z,92.20
2019-04-06T03:18:45.943Z,106.83
2019-04-06T03:21:14.568Z,104.77
2019-04-06T03:23:50.412Z,87.43
2019-04-06T03:26:14.819Z,94.63
2019-04-06T03:28:43.366Z,97.43
2019-04-06T03:31:12.051Z,101.07
2019-04-06T03:33:40.675Z,103.47
2019-04-06T03:36:10.147Z,102.53
2019-04-06T03:38:38.798Z,104.87
2019-04-06T03:41:07.498Z,103.30
2019-04-06T03:43:36.123Z,97.17
2019-04-06T03:46:04.874Z,92.73
2019-04-06T03:48:33.472Z,103.07
2019-04-06T03:51:02.158Z,104.33
2019-04-06T03:53:30.633Z,103.27
2019-04-06T03:55:59.191Z,98.13
2019-04-06T03:58:27.738Z,99.23
2019-04-06T04:00:56.142Z,105.00
2019-04-06T04:03:25.057Z,101.83
2019-04-06T04:05:53.688Z,103.03
2019-04-06T04:08:22.142Z,103.93
2019-04-06T04:10:51.578Z,100.60
2019-04-06T04:13:20.139Z,104.70
2019-04-06T04:15:48.937Z,108.17
2019-04-06T04:18:17.361Z,107.17
2019-04-06T04:20:46.153Z,108.17
2019-04-06T04:23:14.709Z,105.97
2019-04-06T04:25:43.202Z,104.47
2019-04-06T04:28:11.782Z,101.80
2019-04-06T04:30:40.320Z,102.80
2019-04-06T04:33:08.800Z,103.70
2019-04-06T04:35:37.369Z,103.47
2019-04-06T04:38:06.100Z,102.00
2019-04-06T04:40:34.643Z,100.97
2019-04-06T04:43:03.215Z,106.03
2019-04-06T04:45:31.606Z,104.37
2019-04-06T04:48:00.155Z,101.47
2019-04-06T04:50:28.737Z,104.20
2019-04-06T04:52:57.382Z,102.87
2019-04-06T04:55:25.844Z,102.80
2019-04-06T04:57:54.395Z,102.23
2019-04-06T05:00:22.828Z,101.50
2019-04-06T05:02:51.703Z,105.40
2019-04-06T05:05:20.255Z,102.93
2019-04-06T05:07:48.740Z,103.50
2019-04-06T05:10:17.309Z,103.77
2019-04-06T05:12:46.759Z,103.50
2019-04-06T05:15:33.388Z,103.27
2019-04-06T05:18:01.876Z,92.63
2019-04-06T05:20:30.354Z,104.07
2019-04-06T05:22:58.777Z,96.40
2019-04-06T05:25:27.562Z,95.83
2019-04-06T05:27:56.288Z,101.53
2019-04-06T05:30:24.920Z,106.00
2019-04-06T05:32:53.706Z,106.27
2019-04-06T05:35:22.303Z,106.10
2019-04-06T05:37:50.866Z,108.60
2019-04-06T05:40:19.476Z,105.57
2019-04-06T05:42:47.972Z,105.43
2019-04-06T05:45:16.468Z,108.60
2019-04-06T05:47:45.024Z,107.10
2019-04-06T05:50:13.598Z,106.60
2019-04-06T05:52:42.185Z,109.83
2019-04-06T05:55:10.811Z,106.70
2019-04-06T05:57:39.584Z,106.90
2019-04-06T06:00:10.179Z,109.90
2019-04-06T06:02:41.361Z,84.27
2019-04-06T06:05:10.489Z,89.97
2019-04-06T06:07:39.222Z,90.40
2019-04-06T06:10:07.801Z,88.67
2019-04-06T06:12:36.223Z,106.40
2019-04-06T06:15:06.786Z,100.80
2019-04-06T06:17:36.980Z,100.90
2019-04-06T06:20:07.095Z,89.87
2019-04-06T06:22:35.958Z,100.43
2019-04-06T06:25:06.064Z,51.30
2019-04-06T06:27:34.664Z,113.30
2019-04-06T06:30:03.878Z,86.00
2019-04-06T06:32:32.429Z,67.70
2019-04-06T06:35:01.715Z,46.83
2019-04-06T06:37:30.407Z,55.60
2019-04-06T06:39:59.022Z,60.63
2019-04-06T06:42:27.584Z,96.50
2019-04-06T06:44:56.139Z,94.93
2019-04-06T06:47:24.689Z,139.23
2019-04-06T06:49:53.599Z,92.83
2019-04-06T06:52:22.105Z,91.93
2019-04-06T06:54:50.663Z,62.77
2019-04-06T06:57:19.139Z,81.57
2019-04-06T06:59:47.888Z,32.20
2019-04-06T07:02:16.403Z,17.30
2019-04-06T07:04:44.858Z,23.10
2019-04-06T07:07:13.315Z,15.13
2019-04-06T07:09:41.924Z,18.50
2019-04-06T07:12:10.343Z,106.33
2019-04-06T07:14:38.854Z,79.30
2019-04-06T07:17:07.750Z,18.33
2019-04-06T07:19:36.396Z,17.17
2019-04-06T07:22:04.948Z,18.90
2019-04-06T07:24:33.905Z,16.07
2019-04-06T07:27:02.471Z,16.73
2019-04-06T07:29:31.054Z,18.73
2019-04-06T07:31:59.888Z,15.27
2019-04-06T07:34:28.443Z,50.70
2019-04-06T07:36:56.870Z,55.20
2019-04-06T07:39:25.556Z,41.17
2019-04-06T07:41:53.983Z,17.60
2019-04-06T07:44:22.543Z,16.53
2019-04-06T07:46:51.214Z,18.53
2019-04-06T07:49:19.778Z,22.20
2019-04-06T07:51:48.262Z,16.93
2019-04-06T07:54:16.933Z,17.53
2019-04-06T07:56:45.432Z,17.93
2019-04-06T07:59:14.162Z,16.67
2019-04-06T08:01:42.775Z,17.77
2019-04-06T08:04:11.459Z,22.70
2019-04-06T08:06:39.924Z,19.23
2019-04-06T08:09:08.866Z,21.67
2019-04-06T08:11:37.705Z,73.47
2019-04-06T08:14:06.574Z,17.13
2019-04-06T08:16:35.207Z,73.93
2019-04-06T08:19:04.774Z,25.20
2019-04-06T08:21:33.259Z,71.53
2019-04-06T08:24:01.814Z,64.87
2019-04-06T08:26:30.311Z,62.57
2019-04-06T08:29:01.860Z,20.17
2019-04-06T08:31:29.199Z,101.57
2019-04-06T08:33:57.716Z,121.00
2019-04-06T08:36:26.303Z,262.77
2019-04-06T08:38:55.014Z,174.93
2019-04-06T08:41:23.573Z,58.13
2019-04-06T08:43:52.216Z,17.63
2019-04-06T08:46:20.872Z,16.73
2019-04-06T08:48:49.526Z,15.90
2019-04-06T08:51:18.176Z,27.03
2019-04-06T08:53:46.788Z,15.17
2019-04-06T08:56:15.526Z,14.20
2019-04-06T08:58:44.060Z,14.70
2019-04-06T09:01:12.630Z,16.77
2019-04-06T09:03:41.257Z,77.60
2019-04-06T09:06:09.802Z,59.20
2019-04-06T09:08:38.458Z,19.17
2019-04-06T09:11:07.010Z,18.20
2019-04-06T09:13:35.579Z,13.80
2019-04-06T09:16:04.347Z,14.67
2019-04-06T09:18:32.880Z,12.93
2019-04-06T09:21:01.450Z,12.53
2019-04-06T09:23:30.293Z,13.00
2019-04-06T09:25:59.413Z,55.17
2019-04-06T09:28:28.622Z,21.13
2019-04-06T09:30:57.399Z,63.27
2019-04-06T09:33:27.340Z,13.40
2019-04-06T09:35:55.978Z,12.63
2019-04-06T09:38:24.668Z,15.57
2019-04-06T09:40:53.335Z,119.30
2019-04-06T09:43:21.960Z,193.63
2019-04-06T09:45:56.429Z,113.80
2019-04-06T09:48:27.468Z,30.87
2019-04-06T09:50:57.698Z,42.13
2019-04-06T09:53:33.490Z,82.97
2019-04-06T09:55:59.796Z,22.83
2019-04-06T09:58:43.217Z,137.00
2019-04-06T10:01:19.634Z,146.63
2019-04-06T10:03:55.741Z,161.63
2019-04-06T10:06:42.471Z,210.20
2019-04-06T10:09:25.009Z,124.80
2019-04-06T10:12:10.188Z,125.07
2019-04-06T10:14:46.424Z,121.70
2019-04-06T10:17:22.785Z,124.00
2019-04-06T10:19:55.511Z,124.73
2019-04-06T10:22:43.046Z,134.50
2019-04-06T10:25:13.230Z,115.50
2019-04-06T10:27:59.920Z,113.53
2019-04-06T10:30:39.297Z,115.77
2019-04-06T10:33:12.262Z,116.67
2019-04-06T10:35:58.604Z,117.37
2019-04-06T10:38:37.621Z,120.80
2019-04-06T10:41:24.060Z,114.60
2019-04-06T10:44:03.207Z,114.40
2019-04-06T10:46:33.738Z,116.90
2019-04-06T10:49:07.094Z,128.60
2019-04-06T10:51:43.414Z,111.40
2019-04-06T10:54:13.546Z,113.10
2019-04-06T10:57:08.799Z,111.17
2019-04-06T11:00:02.231Z,114.00
2019-04-06T11:02:44.788Z,129.60
2019-04-06T11:05:31.508Z,115.60
2019-04-06T11:08:01.620Z,118.00
2019-04-06T11:10:37.502Z,111.17
2019-04-06T11:13:07.644Z,119.53
2019-04-06T11:15:47.080Z,123.23
2019-04-06T11:18:35.122Z,114.97
2019-04-06T11:21:21.549Z,119.80
2019-04-06T11:23:55.374Z,118.33
2019-04-06T11:26:25.524Z,115.10
2019-04-06T11:29:04.638Z,117.07
2019-04-06T11:31:43.693Z,116.87
2019-04-06T11:34:28.826Z,114.77
2019-04-06T11:37:05.204Z,116.37
2019-04-06T11:39:36.007Z,116.53
2019-04-06T11:42:06.323Z,117.17
2019-04-06T11:44:39.469Z,122.07
2019-04-06T11:47:21.554Z,122.50
2019-04-06T11:49:58.191Z,141.47
2019-04-06T11:52:28.429Z,144.90
2019-04-06T11:55:04.800Z,124.17
2019-04-06T11:57:41.131Z,128.07
2019-04-06T12:00:24.513Z,119.07
2019-04-06T12:02:46.076Z,140.70
2019-04-06T12:05:18.782Z,138.23
2019-04-06T12:07:54.935Z,115.80
2019-04-06T12:10:41.975Z,153.67
2019-04-06T12:13:28.808Z,116.90
2019-04-06T12:15:59.005Z,47.97
2019-04-06T12:18:31.862Z,10.90
2019-04-06T12:21:02.015Z,14.40
2019-04-06T12:23:33.417Z,84.10
2019-04-06T12:26:09.635Z,73.93
2019-04-06T12:28:45.761Z,28.30
2019-04-06T12:31:18.630Z,23.13
2019-04-06T12:34:03.808Z,46.30
2019-04-06T12:36:43.799Z,19.37
2019-04-06T12:39:20.456Z,13.73
2019-04-06T12:41:56.612Z,11.00
2019-04-06T12:44:35.600Z,10.13
2019-04-06T12:47:08.494Z,11.10
2019-04-06T12:49:38.649Z,11.50
2019-04-06T12:52:14.850Z,11.20
2019-04-06T12:54:50.983Z,12.97
2019-04-06T12:57:30.445Z,66.25
2019-04-06T13:00:03.355Z,13.17
2019-04-06T13:02:39.553Z,11.37
2019-04-06T13:05:24.765Z,12.60
2019-04-06T13:07:54.969Z,13.23
2019-04-06T13:10:42.969Z,11.67
2019-04-06T13:13:25.402Z,10.10
2019-04-06T13:16:01.546Z,11.18
2019-04-06T13:18:48.379Z,10.83
2019-04-06T13:21:18.767Z,11.17
2019-04-06T13:23:48.896Z,74.87
2019-04-06T13:26:30.849Z,62.05
2019-04-06T13:29:10.183Z,87.63
2019-04-06T13:31:46.288Z,11.77
2019-04-06T13:34:16.492Z,11.70
2019-04-06T13:36:47.034Z,10.68
2019-04-06T13:39:17.281Z,11.40
2019-04-06T13:42:02.323Z,106.97
2019-04-06T13:44:38.301Z,131.70
2019-04-06T13:47:08.201Z,121.90
2019-04-06T13:49:53.263Z,104.77
2019-04-06T13:52:23.914Z,104.50
2019-04-06T13:54:54.203Z,107.57
2019-04-06T13:57:24.601Z,112.23
2019-04-06T14:00:10.984Z,123.93
2019-04-06T14:02:47.021Z,146.17
2019-04-06T14:05:26.292Z,106.70
2019-04-06T14:08:14.806Z,107.80
2019-04-06T14:10:44.709Z,103.67
2019-04-06T14:13:20.554Z,102.40
2019-04-06T14:15:53.389Z,111.97
2019-04-06T14:18:41.873Z,112.93
2019-04-06T14:21:17.997Z,101.97
2019-04-06T14:23:47.941Z,107.83
2019-04-06T14:26:20.724Z,101.33
2019-04-06T14:28:54.026Z,102.20
2019-04-06T14:31:28.180Z,99.07
2019-04-06T14:34:01.602Z,137.50
2019-04-06T14:36:43.819Z,138.90
2019-04-06T14:39:16.780Z,113.53
2019-04-06T14:41:55.301Z,113.17
2019-04-06T14:44:27.955Z,103.80
2019-04-06T14:47:07.327Z,96.27
2019-04-06T14:49:40.379Z,96.57
2019-04-06T14:52:10.269Z,95.33
2019-04-06T14:54:55.574Z,99.27
2019-04-06T14:57:28.505Z,103.17
2019-04-06T15:00:14.487Z,105.43
2019-04-06T15:03:00.846Z,104.47
2019-04-06T15:05:42.975Z,143.97
2019-04-06T15:08:15.821Z,108.23
2019-04-06T15:10:52.054Z,117.13
2019-04-06T15:13:21.887Z,100.63
2019-04-06T15:15:55.396Z,164.90
2019-04-06T15:18:25.511Z,105.87
2019-04-06T15:21:10.799Z,106.80
2019-04-06T15:23:50.355Z,135.87
2019-04-06T15:26:38.106Z,104.37
2019-04-06T15:29:12.865Z,105.90
2019-04-06T15:31:50.294Z,102.87
2019-04-06T15:34:26.346Z,107.20
2019-04-06T15:36:56.762Z,105.57
2019-04-06T15:39:32.890Z,104.20
2019-04-06T15:42:15.302Z,114.37
2019-04-06T15:45:02.314Z,103.00
2019-04-06T15:47:38.413Z,103.07
2019-04-06T15:50:14.512Z,106.00
2019-04-06T15:52:56.102Z,101.83
2019-04-06T15:55:29.413Z,104.97
2019-04-06T15:58:05.433Z,103.07
2019-04-06T16:00:35.786Z,105.43
2019-04-06T16:03:23.911Z,109.50
2019-04-06T16:06:09.251Z,102.27
2019-04-06T16:08:48.508Z,102.40
2019-04-06T16:11:18.790Z,108.47
2019-04-06T16:13:58.017Z,105.67
2019-04-06T16:16:31.191Z,104.03
2019-04-06T16:19:17.536Z,100.33
2019-04-06T16:21:50.654Z,102.07
2019-04-06T16:24:23.936Z,103.60
2019-04-06T16:27:02.756Z,104.93
2019-04-06T16:29:38.712Z,103.03
2019-04-06T16:32:13.286Z,102.20
2019-04-06T16:34:43.611Z,103.57
2019-04-06T16:37:29.005Z,102.47
2019-04-06T16:40:08.352Z,101.27
2019-04-06T16:42:38.243Z,100.63
2019-04-06T16:45:17.430Z,105.67
2019-04-06T16:47:50.413Z,105.77
2019-04-06T16:50:20.233Z,103.37
2019-04-06T16:52:56.737Z,109.40
2019-04-06T16:55:26.962Z,103.07
2019-04-06T16:57:59.538Z,111.13
2019-04-06T17:00:30.575Z,119.20
2019-04-06T17:03:03.603Z,103.33
2019-04-06T17:05:50.099Z,102.60
2019-04-06T17:08:32.497Z,102.20
2019-04-06T17:11:18.994Z,102.87
2019-04-06T17:13:51.608Z,101.50
2019-04-06T17:16:38.377Z,100.00
2019-04-06T17:19:23.872Z,102.77
2019-04-06T17:21:56.931Z,99.07
2019-04-06T17:24:27.147Z,101.47
2019-04-06T17:27:00.287Z,106.87
2019-04-06T17:29:43.035Z,107.17
2019-04-06T17:32:20.566Z,102.53
2019-04-06T17:35:07.336Z,99.30
2019-04-06T17:37:37.555Z,101.37
2019-04-06T17:40:15.578Z,103.03
2019-04-06T17:43:01.928Z,110.10
2019-04-06T17:45:34.924Z,112.47
2019-04-06T17:48:08.100Z,102.27
2019-04-06T17:50:41.489Z,103.23
2019-04-06T17:53:23.422Z,101.93
2019-04-06T17:55:53.767Z,103.77
2019-04-06T17:58:26.651Z,102.47
2019-04-06T18:01:13.070Z,101.30
2019-04-06T18:03:59.951Z,133.70
2019-04-06T18:06:39.601Z,116.47
2019-04-06T18:09:16.413Z,110.33
2019-04-06T18:11:47.036Z,115.97
2019-04-06T18:14:17.812Z,103.40
2019-04-06T18:16:45.739Z,100.37
2019-04-06T18:19:15.036Z,120.67
2019-04-06T18:21:43.768Z,129.83
2019-04-06T18:24:12.041Z,120.73
2019-04-06T18:26:40.444Z,118.17
2019-04-06T18:29:09.009Z,117.30
2019-04-06T18:31:41.684Z,127.90
2019-04-06T18:34:12.437Z,118.80
2019-04-06T18:36:45.325Z,108.03
2019-04-06T18:39:16.042Z,124.33
2019-04-06T18:41:44.806Z,107.57
2019-04-06T18:44:13.046Z,131.10
2019-04-06T18:46:42.812Z,102.83
2019-04-06T18:49:11.081Z,107.73
2019-04-06T18:51:39.327Z,109.83
2019-04-06T18:54:09.931Z,108.13
2019-04-06T18:56:38.162Z,112.70
2019-04-06T18:59:06.348Z,110.07
2019-04-06T19:01:34.903Z,110.23
2019-04-06T19:04:03.957Z,110.73
2019-04-06T19:06:32.173Z,116.67
2019-04-06T19:09:00.758Z,109.60
2019-04-06T19:11:29.387Z,119.83
2019-04-06T19:13:57.953Z,106.43
2019-04-06T19:16:28.606Z,124.33
2019-04-06T19:18:56.895Z,101.23
2019-04-06T19:21:25.508Z,103.90
2019-04-06T19:23:53.880Z,101.40
2019-04-06T19:26:22.513Z,115.37
2019-04-06T19:28:51.463Z,143.40
2019-04-06T19:31:20.509Z,98.43
2019-04-06T19:33:49.180Z,101.37
2019-04-06T19:36:18.064Z,102.80
2019-04-06T19:38:46.514Z,99.33
2019-04-06T19:41:14.728Z,100.33
2019-04-06T19:43:43.285Z,148.80
2019-04-06T19:46:11.566Z,104.87
2019-04-06T19:48:40.775Z,107.83
2019-04-06T19:51:09.503Z,101.90
2019-04-06T19:53:37.933Z,107.10
2019-04-06T19:56:06.505Z,95.83
2019-04-06T19:58:34.794Z,96.17
2019-04-06T20:01:03.517Z,94.33
2019-04-06T20:03:36.977Z,94.27
2019-04-06T20:06:02.016Z,94.97
2019-04-06T20:08:30.750Z,95.97
2019-04-06T20:10:59.074Z,96.33
2019-04-06T20:13:28.771Z,94.07
2019-04-06T20:15:57.467Z,93.60
2019-04-06T20:18:26.268Z,93.63
2019-04-06T20:20:55.206Z,94.60
2019-04-06T20:23:24.315Z,104.53
2019-04-06T20:25:53.084Z,91.97
2019-04-06T20:28:21.442Z,95.13
2019-04-06T20:30:50.158Z,93.97
2019-04-06T20:33:19.926Z,97.63
2019-04-06T20:35:48.675Z,104.63
2019-04-06T20:38:16.975Z,94.37
2019-04-06T20:40:45.211Z,94.07
2019-04-06T20:43:13.556Z,92.23
2019-04-06T20:45:42.185Z,91.80
2019-04-06T20:48:10.497Z,92.67
2019-04-06T20:50:38.762Z,90.33
2019-04-06T20:53:07.211Z,95.33
2019-04-06T20:55:35.447Z,91.00
2019-04-06T20:58:03.987Z,91.33
2019-04-06T21:00:32.423Z,92.40
2019-04-06T21:03:01.075Z,90.50
2019-04-06T21:05:29.387Z,93.40
2019-04-06T21:07:57.768Z,93.40
2019-04-06T21:10:25.984Z,95.77
2019-04-06T21:12:54.181Z,92.13
2019-04-06T21:15:22.690Z,91.67
2019-04-06T21:17:50.935Z,93.20
2019-04-06T21:20:19.185Z,90.93
2019-04-06T21:22:47.416Z,89.60
2019-04-06T21:25:15.732Z,91.70
2019-04-06T21:27:44.217Z,93.00
2019-04-06T21:30:13.526Z,92.70
2019-04-06T21:32:42.410Z,92.80
2019-04-06T21:35:11.341Z,91.03
2019-04-06T21:37:40.003Z,91.00
2019-04-06T21:40:09.138Z,92.13
2019-04-06T21:42:37.694Z,92.13
2019-04-06T21:45:09.376Z,94.97
2019-04-06T21:47:37.801Z,92.23
2019-04-06T21:50:06.862Z,92.43
2019-04-06T21:52:35.798Z,115.10
2019-04-06T21:55:05.052Z,94.47
2019-04-06T21:57:33.308Z,93.27
2019-04-06T22:00:02.190Z,92.17
2019-04-06T22:02:30.823Z,93.90
2019-04-06T22:04:59.116Z,92.77
2019-04-06T22:07:27.508Z,91.70
2019-04-06T22:09:55.857Z,92.90
2019-04-06T22:12:24.154Z,92.03
2019-04-06T22:14:52.444Z,92.53
2019-04-06T22:17:21.051Z,93.43
2019-04-06T22:19:49.412Z,93.37
2019-04-06T22:22:18.021Z,93.87
2019-04-06T22:24:46.396Z,93.80
2019-04-06T22:27:15.911Z,95.53
2019-04-06T22:29:44.719Z,92.37
2019-04-06T22:32:13.079Z,94.17
2019-04-06T22:34:41.911Z,89.60
2019-04-06T22:37:10.722Z,92.57
2019-04-06T22:39:39.013Z,93.13
2019-04-06T22:42:07.717Z,90.50
2019-04-06T22:44:36.075Z,92.53
2019-04-06T22:47:04.714Z,93.03
2019-04-06T22:49:32.958Z,89.93
2019-04-06T22:52:01.350Z,93.00
2019-04-06T22:54:29.593Z,90.73
2019-04-06T22:56:57.761Z,90.03
2019-04-06T22:59:25.995Z,91.13
2019-04-06T23:01:54.246Z,100.53
2019-04-06T23:04:31.061Z,98.50
2019-04-06T23:07:04.173Z,101.80
2019-04-06T23:09:32.514Z,100.47
2019-04-06T23:12:00.811Z,111.77
2019-04-06T23:14:28.933Z,97.63
2019-04-06T23:16:57.170Z,97.10
2019-04-06T23:19:25.981Z,121.40
2019-04-06T23:21:54.286Z,104.47
2019-04-06T23:24:22.761Z,94.87
2019-04-06T23:26:51.514Z,96.30
2019-04-06T23:29:19.877Z,97.60
2019-04-06T23:31:48.400Z,92.83
2019-04-06T23:34:16.764Z,99.97
2019-04-06T23:36:45.001Z,103.90
2019-04-06T23:39:14.181Z,104.67
2019-04-06T23:41:42.695Z,98.40
2019-04-06T23:44:11.076Z,90.40
2019-04-06T23:46:39.518Z,91.80
2019-04-06T23:49:07.862Z,93.10
2019-04-06T23:51:36.101Z,92.33
2019-04-06T23:54:04.345Z,92.90
2019-04-06T23:56:32.579Z,93.13
2019-04-06T23:59:00.841Z,97.33
